Time;durP1;ratioP1;P1;durP2;ratioP2;P2;SDS_P1;SDS_P2;PMS_P1;PMS_P2;Temp;Humidity;BMP_temperature;BMP_pressure;BME280_temperature;BME280_humidity;BME280_pressure;Samples;Min_cycle;Max_cycle;Signal;HPM_P1;HPM_P2
2023/01/11 00:00:27;;;;;;;9.05;1.10;;;;;;;-146.73;nan;46121.84;6153178;23;20001;-95
2023/01/11 00:03:01;;;;;;;7.13;1.33;;;;;;;-146.73;nan;46084.38;6155872;23;20016;-95
2023/01/11 00:05:26;;;;;;;;;;;;;;;-146.73;nan;46102.13;6156015;23;20029;-93
2023/01/11 00:07:52;;;;;;;7.47;1.48;;;;;;;-146.73;nan;45956.13;6155409;23;20351;-96
2023/01/11 00:10:18;;;;;;;7.72;1.38;;;;;;;-146.73;nan;45967.97;6155503;23;20089;-95
2023/01/11 00:12:45;;;;;;;5.25;1.00;;;;;;;-146.73;nan;46031.09;6154236;23;20025;-95
2023/01/11 00:15:11;;;;;;;8.05;1.20;;;;;;;-146.73;nan;45952.19;6154670;23;20035;-95
2023/01/11 00:17:37;;;;;;;8.68;1.10;;;;;;;-146.73;nan;46033.06;6153757;23;20009;-95
2023/01/11 00:20:03;;;;;;;11.88;1.60;;;;;;;-146.73;nan;45997.56;6155278;23;20099;-95
2023/01/11 00:22:28;;;;;;;8.93;1.00;;;;;;;-146.73;nan;45904.84;6157239;23;20795;-95
2023/01/11 00:24:54;;;;;;;7.75;1.52;;;;;;;-146.73;nan;45877.22;6167909;23;20044;-93
2023/01/11 00:27:19;;;;;;;8.35;1.10;;;;;;;-146.73;nan;45889.06;6171246;23;20043;-95
2023/01/11 00:29:45;;;;;;;11.80;1.60;;;;;;;-146.73;nan;45877.22;6166803;23;20167;-94
2023/01/11 00:32:10;;;;;;;12.63;1.75;;;;;;;-146.73;nan;45910.75;6176539;23;19989;-95
2023/01/11 00:34:36;;;;;;;12.43;1.50;;;;;;;-146.73;nan;45877.22;6178845;23;20016;-95
2023/01/11 00:37:01;;;;;;;11.48;1.55;;;;;;;-146.73;nan;45912.72;6178894;23;20040;-94
2023/01/11 00:39:26;;;;;;;11.10;1.60;;;;;;;-146.73;nan;45956.13;6179467;23;20040;-93
2023/01/11 00:50:08;;;;;;;12.18;2.03;;;;;;;-146.73;nan;45964.03;6161677;23;20343;-95
2023/01/11 00:52:33;;;;;;;16.70;1.60;;;;;;;-146.73;nan;45910.75;6159826;23;20080;-96
2023/01/11 00:54:59;;;;;;;10.93;1.80;;;;;;;-146.73;nan;45936.41;6154952;23;20447;-95
2023/01/11 00:57:24;;;;;;;9.60;1.60;;;;;;;-146.73;nan;45930.47;6154446;23;20017;-96
2023/01/11 00:59:51;;;;;;;12.20;1.95;;;;;;;-146.73;nan;45896.94;6154661;23;20008;-96
2023/01/11 01:02:16;;;;;;;12.15;1.42;;;;;;;-146.73;nan;45926.53;6155459;23;20048;-95
2023/01/11 01:04:41;;;;;;;10.35;1.70;;;;;;;-146.73;nan;45831.84;6154858;23;20018;-96
2023/01/11 01:07:07;;;;;;;9.38;1.40;;;;;;;-146.73;nan;45908.78;6153301;23;20005;-96
2023/01/11 01:09:36;;;;;;;10.57;1.38;;;;;;;-146.73;nan;45881.16;6153165;23;20329;-95
2023/01/11 01:12:02;;;;;;;9.95;1.63;;;;;;;-146.73;nan;45928.50;6152261;23;20001;-96
2023/01/11 01:14:28;;;;;;;9.23;1.50;;;;;;;-146.73;nan;45904.84;6151710;23;20021;-95
2023/01/11 01:17:03;;;;;;;11.05;1.55;;;;;;;-146.73;nan;45908.78;6152741;23;20080;-96
2023/01/11 01:19:29;;;;;;;8.38;1.40;;;;;;;-146.73;nan;45869.31;6153090;23;20001;-96
2023/01/11 01:21:57;;;;;;;10.52;1.65;;;;;;;-146.73;nan;45908.78;6151871;23;20009;-95
2023/01/11 01:24:23;;;;;;;9.98;1.67;;;;;;;-146.73;nan;45831.84;6152439;23;20371;-95
2023/01/11 01:26:48;;;;;;;14.70;1.70;;;;;;;-146.73;nan;45818.03;6153285;23;20014;-93
2023/01/11 01:29:14;;;;;;;9.48;1.65;;;;;;;-146.73;nan;45896.94;6151247;23;20005;-93
2023/01/11 01:31:41;;;;;;;15.80;2.03;;;;;;;-146.73;nan;45902.88;6152308;23;20017;-94
2023/01/11 01:34:08;;;;;;;11.57;1.77;;;;;;;-146.73;nan;45831.84;6151950;23;20077;-93
2023/01/11 01:36:33;;;;;;;9.02;1.60;;;;;;;-146.73;nan;45859.47;6152514;23;20009;-94
2023/01/11 01:38:59;;;;;;;11.00;1.75;;;;;;;-146.73;nan;45896.94;6153674;23;20010;-93
2023/01/11 01:41:25;;;;;;;13.77;1.95;;;;;;;-146.73;nan;45958.09;6154110;23;20006;-93
2023/01/11 01:43:56;;;;;;;11.68;1.60;;;;;;;-146.73;nan;45942.31;6154310;23;20083;-94
2023/01/11 01:46:26;;;;;;;9.88;1.42;;;;;;;-146.73;nan;45891.03;6153539;23;20009;-94
2023/01/11 01:48:54;;;;;;;10.73;1.83;;;;;;;-146.73;nan;45916.69;6154144;23;20002;-96
2023/01/11 01:51:26;;;;;;;11.52;1.80;;;;;;;-146.73;nan;45900.91;6155611;23;20141;-93
2023/01/11 01:53:57;;;;;;;9.27;1.63;;;;;;;-146.73;nan;45857.50;6156151;23;20012;-93
2023/01/11 01:56:47;;;;;;;15.43;1.98;;;;;;;-146.73;nan;45861.44;6153050;23;20375;-92
2023/01/11 01:59:15;;;;;;;12.07;1.50;;;;;;;-146.73;nan;45875.25;6154897;23;20091;-94
2023/01/11 02:01:47;;;;;;;13.80;1.80;;;;;;;-146.73;nan;45887.09;6154012;23;20009;-94
2023/01/11 02:04:18;;;;;;;8.77;1.30;;;;;;;-146.73;nan;45956.13;6153306;23;20065;-94
2023/01/11 02:06:44;;;;;;;9.32;1.70;;;;;;;-146.73;nan;45904.84;6156015;23;20064;-94
2023/01/11 02:09:28;;;;;;;11.23;1.70;;;;;;;-146.73;nan;45975.88;6154773;23;20010;-93
2023/01/11 02:11:56;;;;;;;10.10;1.80;;;;;;;-146.73;nan;45977.84;6153607;23;20009;-96
2023/01/11 02:14:23;;;;;;;14.35;1.48;;;;;;;-146.73;nan;45914.69;6154967;23;20010;-94
2023/01/11 02:16:48;;;;;;;12.05;1.65;;;;;;;-146.73;nan;45871.31;6154502;23;20001;-94
2023/01/11 02:20:05;;;;;;;12.25;2.10;;;;;;;-146.73;nan;45928.50;6153505;23;20013;-94
2023/01/11 02:22:52;;;;;;;15.38;1.75;;;;;;;-146.73;nan;45893.00;6155562;23;20389;-94
2023/01/11 02:25:36;;;;;;;9.63;1.67;;;;;;;-146.73;nan;45908.78;6152660;23;19997;-94
2023/01/11 02:28:15;;;;;;;12.75;1.80;;;;;;;-146.73;nan;45883.13;6155084;23;20013;-94
2023/01/11 02:30:51;;;;;;;11.95;1.83;;;;;;;-146.73;nan;45889.06;6155829;23;20159;-94
2023/01/11 02:33:28;;;;;;;15.43;1.90;;;;;;;-146.73;nan;45916.69;6153780;23;20021;-94
2023/01/11 02:36:14;;;;;;;12.05;1.80;;;;;;;-146.73;nan;45885.09;6154597;23;20367;-96
2023/01/11 02:39:21;;;;;;;12.80;1.90;;;;;;;-146.73;nan;45908.78;6153609;23;20673;-94
2023/01/11 02:45:15;;;;;;;14.10;1.90;;;;;;;-146.73;nan;45902.88;6156183;23;20058;-93
2023/01/11 02:47:55;;;;;;;12.10;1.90;;;;;;;-146.73;nan;45875.25;6153600;23;20404;-93
2023/01/11 02:50:29;;;;;;;12.90;1.85;;;;;;;-146.73;nan;45889.06;6152685;23;20017;-94
2023/01/11 02:53:19;;;;;;;12.98;2.00;;;;;;;-146.73;nan;45912.72;6154512;23;20084;-96
2023/01/11 02:55:48;;;;;;;11.35;1.80;;;;;;;-146.73;nan;45841.72;6155571;23;20352;-93
2023/01/11 02:58:16;;;;;;;11.32;1.50;;;;;;;-146.73;nan;45893.00;6153426;23;20419;-94
2023/01/11 03:03:44;;;;;;;11.65;1.92;;;;;;;-146.73;nan;45893.00;6165811;23;20537;-92
2023/01/11 03:06:15;;;;;;;12.43;2.08;;;;;;;-146.73;nan;45916.69;6170633;23;20013;-92
2023/01/11 03:09:06;;;;;;;13.32;2.00;;;;;;;-146.73;nan;45873.28;6150336;23;20016;-94
2023/01/11 03:15:08;;;;;;;16.25;2.20;;;;;;;-146.73;nan;45871.31;6177756;23;20037;-93
2023/01/11 03:17:33;;;;;;;16.10;2.08;;;;;;;-146.73;nan;45869.31;6176138;23;20001;-95
2023/01/11 03:20:13;;;;;;;18.40;3.25;;;;;;;-146.73;nan;45932.47;6177560;23;20072;-94
2023/01/11 03:23:00;;;;;;;16.98;2.25;;;;;;;-146.73;nan;45883.13;6176123;23;20017;-95
2023/01/11 03:26:05;;;;;;;17.20;2.50;;;;;;;-146.73;nan;45865.38;6150197;23;20074;-95
2023/01/11 03:28:39;;;;;;;13.82;1.65;;;;;;;-146.73;nan;45900.91;6177903;23;20012;-95
2023/01/11 03:31:20;;;;;;;15.90;2.03;;;;;;;-146.73;nan;45889.06;6151296;23;20012;-96
2023/01/11 03:33:55;;;;;;;18.15;2.30;;;;;;;-146.73;nan;45821.97;6149778;23;20025;-95
2023/01/11 03:36:27;;;;;;;13.60;2.10;;;;;;;-146.73;nan;45867.34;6176825;23;20099;-95
2023/01/11 03:39:10;;;;;;;11.13;2.08;;;;;;;-146.73;nan;45857.50;6177515;23;20008;-96
2023/01/11 03:41:39;;;;;;;13.48;2.33;;;;;;;-146.73;nan;45887.09;6177576;23;20019;-93
2023/01/11 03:44:07;;;;;;;11.43;1.80;;;;;;;-146.73;nan;45827.91;6151965;23;20136;-94
2023/01/11 03:46:37;;;;;;;15.50;2.38;;;;;;;-146.73;nan;45820.00;6147793;23;20032;-95
2023/01/11 03:49:03;;;;;;;11.43;1.83;;;;;;;-146.73;nan;45804.22;6149988;23;20017;-96
2023/01/11 03:51:34;;;;;;;18.67;2.08;;;;;;;-146.73;nan;45812.13;6149643;23;20016;-94
2023/01/11 03:54:02;;;;;;;13.15;1.88;;;;;;;-146.73;nan;45821.97;6178111;23;20001;-95
2023/01/11 03:56:49;;;;;;;22.70;2.10;;;;;;;-146.73;nan;45906.81;6151260;23;20004;-94
2023/01/11 03:59:15;;;;;;;13.48;2.30;;;;;;;-146.73;nan;45932.47;6151954;23;20019;-94
2023/01/11 04:01:42;;;;;;;17.60;2.28;;;;;;;-146.73;nan;45891.03;6178057;23;20000;-95
2023/01/11 04:04:07;;;;;;;11.90;2.05;;;;;;;-146.73;nan;45843.69;6150581;23;20029;-92
2023/01/11 04:06:35;;;;;;;15.98;2.17;;;;;;;-146.73;nan;45845.66;6178173;23;20220;-95
2023/01/11 04:09:01;;;;;;;10.35;2.40;;;;;;;-146.73;nan;45833.81;6177698;23;20880;-95
2023/01/11 04:11:26;;;;;;;13.32;2.00;;;;;;;-146.73;nan;45869.31;6152180;23;20032;-94
2023/01/11 04:13:52;;;;;;;13.50;2.05;;;;;;;-146.73;nan;45849.59;6151925;23;20343;-94
2023/01/11 04:16:17;;;;;;;13.20;2.05;;;;;;;-146.73;nan;45804.22;6152087;23;20068;-95
2023/01/11 04:18:42;;;;;;;15.32;1.85;;;;;;;-146.73;nan;45816.06;6176271;23;20443;-94
2023/01/11 04:21:08;;;;;;;18.58;2.63;;;;;;;-146.73;nan;45851.56;6177287;23;20076;-94
2023/01/11 04:23:34;;;;;;;14.43;1.90;;;;;;;-146.73;nan;45790.41;6175751;23;20005;-94
2023/01/11 04:25:59;;;;;;;17.77;1.80;;;;;;;-146.73;nan;45849.59;6148779;23;20016;-93
2023/01/11 04:28:25;;;;;;;13.57;2.28;;;;;;;-146.73;nan;45883.13;6175739;23;20339;-95
2023/01/11 04:30:50;;;;;;;13.70;2.17;;;;;;;-146.73;nan;45798.31;6149580;23;20625;-96
2023/01/11 04:33:17;;;;;;;13.90;2.30;;;;;;;-146.73;nan;45881.16;6175689;23;20024;-94
2023/01/11 04:35:43;;;;;;;13.07;2.15;;;;;;;-146.73;nan;45889.06;6149555;23;20063;-94
2023/01/11 04:38:08;;;;;;;16.02;2.40;;;;;;;-146.73;nan;45885.09;6148530;23;20366;-93
2023/01/11 04:40:34;;;;;;;15.70;2.20;;;;;;;-146.73;nan;45908.78;6175481;23;20027;-93
2023/01/11 04:43:01;;;;;;;11.23;2.08;;;;;;;-146.73;nan;45900.91;6150086;23;20000;-94
2023/01/11 04:45:27;;;;;;;13.93;2.10;;;;;;;-146.73;nan;45893.00;6177313;23;20055;-93
2023/01/11 04:47:56;;;;;;;16.58;2.33;;;;;;;-146.73;nan;45841.72;6149453;23;20063;-94
2023/01/11 04:50:22;;;;;;;18.30;2.17;;;;;;;-146.73;nan;45881.16;6175733;23;20013;-94
2023/01/11 04:52:48;;;;;;;11.48;1.90;;;;;;;-146.73;nan;45871.31;6175721;23;20020;-94
2023/01/11 04:55:13;;;;;;;15.13;2.00;;;;;;;-146.73;nan;45812.13;6176967;23;20413;-95
2023/01/11 04:57:39;;;;;;;11.18;1.67;;;;;;;-146.73;nan;45849.59;6150696;23;20028;-94
2023/01/11 05:00:09;;;;;;;12.18;1.98;;;;;;;-146.73;nan;45814.09;6177195;23;20427;-94
2023/01/11 05:02:37;;;;;;;15.02;1.83;;;;;;;-146.73;nan;45875.25;6150426;23;20009;-94
2023/01/11 05:05:04;;;;;;;12.93;2.00;;;;;;;-146.73;nan;45827.91;6149939;23;20047;-94
2023/01/11 05:07:30;;;;;;;18.65;1.98;;;;;;;-146.73;nan;45825.94;6150791;23;20027;-92
2023/01/11 05:09:55;;;;;;;13.02;2.10;;;;;;;-146.73;nan;45859.47;6149937;23;20005;-93
2023/01/11 05:12:20;;;;;;;17.30;2.17;;;;;;;-146.73;nan;45857.50;6176776;23;20005;-94
2023/01/11 05:14:46;;;;;;;13.15;2.25;;;;;;;-146.73;nan;45825.94;6177188;23;20696;-94
2023/01/11 05:17:16;;;;;;;12.60;2.38;;;;;;;-146.73;nan;45835.78;6149468;23;20812;-93
2023/01/11 05:19:42;;;;;;;14.32;3.15;;;;;;;-146.73;nan;45798.31;6150238;23;20032;-95
2023/01/11 05:22:08;;;;;;;11.57;1.75;;;;;;;-146.73;nan;45835.78;6149508;23;20422;-92
2023/01/11 05:24:34;;;;;;;12.70;2.75;;;;;;;-146.73;nan;45776.59;6150341;23;20381;-94
2023/01/11 05:27:00;;;;;;;13.95;1.90;;;;;;;-146.73;nan;45829.88;6150578;23;20012;-94
2023/01/11 05:29:25;;;;;;;14.55;2.15;;;;;;;-146.73;nan;45833.81;6150157;23;20312;-94
2023/01/11 05:31:51;;;;;;;9.93;1.58;;;;;;;-146.73;nan;45853.53;6178408;23;20009;-94
2023/01/11 05:34:16;;;;;;;12.75;2.05;;;;;;;-146.73;nan;45814.09;6150496;23;20312;-94
2023/01/11 05:36:43;;;;;;;16.25;2.38;;;;;;;-146.73;nan;45810.16;6176585;23;20051;-94
2023/01/11 05:39:10;;;;;;;16.60;2.28;;;;;;;-146.73;nan;45774.63;6149890;23;20012;-94
2023/01/11 05:41:36;;;;;;;17.77;2.03;;;;;;;-146.73;nan;45821.97;6151476;23;20009;-95
2023/01/11 05:46:46;;;;;;;13.55;2.42;;;;;;;-146.73;nan;45818.03;6177602;23;20520;-93
2023/01/11 05:49:13;;;;;;;15.20;3.33;;;;;;;-146.73;nan;45814.09;6150374;23;20115;-94
2023/01/11 05:51:39;;;;;;;14.38;1.90;;;;;;;-146.73;nan;45818.03;6177867;23;20379;-95
2023/01/11 05:54:06;;;;;;;14.63;2.13;;;;;;;-146.73;nan;45796.34;6151413;23;20009;-93
2023/01/11 05:56:31;;;;;;;14.23;2.00;;;;;;;-146.73;nan;45792.38;6147638;23;20059;-96
2023/01/11 05:58:57;;;;;;;14.80;1.90;;;;;;;-146.73;nan;45845.66;6149924;23;20016;-93
2023/01/11 06:01:25;;;;;;;13.70;2.53;;;;;;;-146.73;nan;45798.31;6150262;23;20363;-94
2023/01/11 06:03:51;;;;;;;15.30;2.42;;;;;;;-146.73;nan;45770.69;6176894;23;20017;-95
2023/01/11 06:06:19;;;;;;;13.98;2.35;;;;;;;-146.73;nan;45814.09;6151516;23;20009;-93
2023/01/11 06:08:44;;;;;;;14.00;2.05;;;;;;;-146.73;nan;45784.50;6151495;23;20145;-95
2023/01/11 06:11:10;;;;;;;11.85;1.98;;;;;;;-146.73;nan;45802.25;6150360;23;20498;-94
2023/01/11 06:13:35;;;;;;;14.68;2.08;;;;;;;-146.73;nan;45766.75;6178036;23;20336;-95
2023/01/11 06:16:02;;;;;;;11.38;1.50;;;;;;;-146.73;nan;45794.34;6150118;23;20005;-94
2023/01/11 06:18:36;;;;;;;13.27;2.33;;;;;;;-146.73;nan;45790.41;6150462;23;20063;-94
2023/01/11 06:21:03;;;;;;;10.68;1.63;;;;;;;-146.73;nan;45782.53;6178293;23;20052;-95
2023/01/11 06:23:31;;;;;;;17.00;2.60;;;;;;;-146.73;nan;45816.06;6177142;23;20016;-94
2023/01/11 06:25:59;;;;;;;13.50;1.95;;;;;;;-146.73;nan;45841.72;6175531;23;20001;-94
2023/01/11 06:28:24;;;;;;;12.93;1.65;;;;;;;-146.73;nan;45857.50;6174399;23;20017;-93
2023/01/11 06:30:52;;;;;;;17.42;2.30;;;;;;;-146.73;nan;45768.72;6175134;23;20775;-94
2023/01/11 06:33:17;;;;;;;12.52;2.05;;;;;;;-146.73;nan;45768.72;6147499;23;20044;-93
2023/01/11 06:35:43;;;;;;;13.98;1.77;;;;;;;-146.73;nan;45806.19;6150422;23;20017;-94
2023/01/11 06:38:11;;;;;;;14.38;1.95;;;;;;;-146.73;nan;45764.78;6176772;23;20004;-93
2023/01/11 06:40:38;;;;;;;12.40;2.03;;;;;;;-146.73;nan;45770.69;6177261;23;20079;-94
2023/01/11 06:43:04;;;;;;;13.05;2.22;;;;;;;-146.73;nan;45747.00;6150989;23;20328;-93
2023/01/11 06:45:30;;;;;;;14.40;2.03;;;;;;;-146.73;nan;45780.56;6153003;23;20073;-92
2023/01/11 06:47:56;;;;;;;11.90;1.83;;;;;;;-146.73;nan;45778.56;6177742;23;20001;-93
2023/01/11 06:50:21;;;;;;;15.35;2.33;;;;;;;-146.73;nan;45762.78;6177743;23;20017;-94
2023/01/11 06:52:54;;;;;;;11.60;2.08;;;;;;;-146.73;nan;45774.63;6151949;23;20013;-94
2023/01/11 06:55:21;;;;;;;14.82;1.83;;;;;;;-146.73;nan;45820.00;6151748;23;20005;-94
2023/01/11 06:57:46;;;;;;;19.35;2.30;;;;;;;-146.73;nan;45794.34;6179920;23;20001;-93
2023/01/11 07:00:12;;;;;;;13.27;1.85;;;;;;;-146.73;nan;45814.09;6150806;23;20590;-94
2023/01/11 07:02:38;;;;;;;10.60;1.83;;;;;;;-146.73;nan;45786.47;6150329;23;20032;-93
2023/01/11 07:05:03;;;;;;;14.32;2.10;;;;;;;-146.73;nan;45766.75;6151984;23;20024;-94
2023/01/11 07:07:29;;;;;;;12.40;1.80;;;;;;;-146.73;nan;45770.69;6150965;23;20017;-94
2023/01/11 07:09:54;;;;;;;11.10;2.10;;;;;;;-146.73;nan;45782.53;6150425;23;20434;-93
2023/01/11 07:12:20;;;;;;;12.02;2.05;;;;;;;-146.73;nan;45768.72;6151615;23;20025;-93
2023/01/11 07:14:45;;;;;;;13.65;1.95;;;;;;;-146.73;nan;45766.75;6178545;23;20026;-94
2023/01/11 07:17:10;;;;;;;13.93;2.20;;;;;;;-146.73;nan;45764.78;6178324;23;20395;-92
2023/01/11 07:19:36;;;;;;;16.02;1.77;;;;;;;-146.73;nan;45782.53;6150606;23;20015;-93
2023/01/11 07:22:01;;;;;;;15.35;2.33;;;;;;;-146.73;nan;45794.34;6153263;23;20301;-93
2023/01/11 07:24:27;;;;;;;17.00;2.40;;;;;;;-146.73;nan;45741.09;6150591;23;20096;-94
2023/01/11 07:26:58;;;;;;;17.50;2.17;;;;;;;-146.73;nan;45782.53;6176261;23;20005;-92
2023/01/11 07:29:24;;;;;;;14.98;2.38;;;;;;;-146.73;nan;45774.63;6149475;23;20009;-93
2023/01/11 07:31:49;;;;;;;12.70;2.10;;;;;;;-146.73;nan;45743.06;6176724;23;20088;-93
2023/01/11 07:34:14;;;;;;;12.70;1.77;;;;;;;-146.73;nan;45798.31;6175379;23;20343;-92
2023/01/11 07:36:40;;;;;;;13.73;2.05;;;;;;;-146.73;nan;45749.00;6146186;23;20048;-93
2023/01/11 07:39:06;;;;;;;12.63;2.15;;;;;;;-146.73;nan;45782.53;6175943;23;20009;-93
2023/01/11 07:44:16;;;;;;;17.52;2.03;;;;;;;-146.73;nan;45772.66;6176224;23;20019;-93
2023/01/11 07:46:41;;;;;;;11.90;2.10;;;;;;;-146.73;nan;45762.78;6175250;23;20016;-94
2023/01/11 07:49:06;;;;;;;14.65;2.33;;;;;;;-146.73;nan;45849.59;6175742;23;20004;-94
2023/01/11 07:51:33;;;;;;;14.85;2.22;;;;;;;-146.73;nan;45756.88;6175779;23;20015;-92
2023/01/11 07:54:01;;;;;;;13.35;2.30;;;;;;;-146.73;nan;45792.38;6175851;23;20013;-94
2023/01/11 07:56:27;;;;;;;11.63;2.28;;;;;;;-146.73;nan;45784.50;6149672;23;20048;-93
2023/01/11 07:58:53;;;;;;;13.30;2.38;;;;;;;-146.73;nan;45752.94;6175270;23;20028;-94
2023/01/11 08:01:18;;;;;;;12.43;2.17;;;;;;;-146.73;nan;45766.75;6176048;23;20289;-94
2023/01/11 08:03:44;;;;;;;13.52;1.98;;;;;;;-146.73;nan;45780.56;6149027;23;20029;-94
2023/01/11 08:06:09;;;;;;;17.10;2.08;;;;;;;-146.73;nan;45774.63;6148491;23;20005;-93
2023/01/11 08:08:35;;;;;;;13.80;2.22;;;;;;;-146.73;nan;45754.91;6174343;23;20096;-92
2023/01/11 08:16:28;;;;;;;12.82;2.28;;;;;;;-146.73;nan;45798.31;6173572;23;20465;-93
2023/01/11 08:18:53;;;;;;;15.93;2.28;;;;;;;-146.73;nan;45808.16;6144854;23;19997;-92
2023/01/11 08:21:20;;;;;;;17.17;2.10;;;;;;;-146.73;nan;45778.56;6144370;23;20370;-93
2023/01/11 08:23:46;;;;;;;9.55;1.80;;;;;;;-146.73;nan;45829.88;6174491;23;20001;-94
2023/01/11 08:26:15;;;;;;;16.98;1.73;;;;;;;-146.73;nan;45816.06;6148987;23;20021;-93
2023/01/11 08:28:42;;;;;;;19.55;2.88;;;;;;;-146.73;nan;45758.84;6149439;23;20028;-94
2023/01/11 08:31:07;;;;;;;10.52;1.98;;;;;;;-146.73;nan;45768.72;6176292;23;20016;-92
2023/01/11 08:33:33;;;;;;;21.38;2.28;;;;;;;-146.73;nan;45814.09;6145737;23;20005;-94
2023/01/11 08:36:04;;;;;;;13.77;2.08;;;;;;;-146.73;nan;45794.34;6147330;23;20024;-94
2023/01/11 08:38:30;;;;;;;13.27;2.00;;;;;;;-146.73;nan;45764.78;6148710;23;20025;-93
2023/01/11 08:40:55;;;;;;;10.73;1.88;;;;;;;-146.73;nan;45847.63;6146609;23;20017;-93
2023/01/11 08:43:20;;;;;;;13.95;1.92;;;;;;;-146.73;nan;45806.19;6147920;23;20009;-93
2023/01/11 08:45:50;;;;;;;18.00;2.10;;;;;;;-146.73;nan;45772.66;6144671;23;20454;-94
2023/01/11 08:48:16;;;;;;;19.05;3.63;;;;;;;-146.73;nan;45825.94;6146033;23;20592;-92
2023/01/11 08:50:43;;;;;;;15.55;2.35;;;;;;;-146.73;nan;45806.19;6146916;23;20015;-93
2023/01/11 08:53:10;;;;;;;16.00;2.38;;;;;;;-146.73;nan;45798.31;6145988;23;20087;-94
2023/01/11 08:55:35;;;;;;;22.30;2.47;;;;;;;-146.73;nan;45855.53;6145888;23;20012;-92
2023/01/11 08:58:01;;;;;;;20.30;2.70;;;;;;;-146.73;nan;45829.88;6140046;23;20001;-93
2023/01/11 09:00:29;;;;;;;11.68;1.90;;;;;;;-146.73;nan;45808.16;6143303;23;20007;-95
2023/01/11 09:02:54;;;;;;;15.10;2.30;;;;;;;-146.73;nan;45776.59;6175486;23;20021;-93
2023/01/11 09:05:20;;;;;;;17.15;2.67;;;;;;;-146.73;nan;45764.78;6147152;23;20510;-91
2023/01/11 09:07:45;;;;;;;16.05;2.58;;;;;;;-146.73;nan;45922.59;6173825;23;20100;-93
2023/01/11 09:10:11;;;;;;;17.05;2.03;;;;;;;-146.73;nan;45831.84;6146475;23;20047;-91
2023/01/11 09:12:36;;;;;;;18.17;2.50;;;;;;;-146.73;nan;45853.53;6173842;23;20107;-92
2023/01/11 09:15:04;;;;;;;21.38;3.17;;;;;;;-146.73;nan;45891.03;6173908;23;20004;-92
2023/01/11 09:17:30;;;;;;;12.02;1.80;;;;;;;-146.73;nan;45843.69;6146100;23;20083;-92
2023/01/11 09:19:55;;;;;;;17.77;2.60;;;;;;;-146.73;nan;45893.00;6174450;23;20401;-93
2023/01/11 09:22:21;;;;;;;20.52;2.85;;;;;;;-146.73;nan;45883.13;6147885;23;20589;-92
2023/01/11 09:24:49;;;;;;;20.95;3.20;;;;;;;-146.73;nan;45942.31;6148581;23;20027;-91
2023/01/11 09:27:15;;;;;;;20.70;3.03;;;;;;;-146.73;nan;45914.69;6150152;23;20005;-92
2023/01/11 09:29:40;;;;;;;20.98;3.08;;;;;;;-146.73;nan;45995.59;6145783;23;20016;-92
2023/01/11 09:32:06;;;;;;;18.48;2.60;;;;;;;-146.73;nan;45936.41;6172794;23;20028;-92
2023/01/11 09:34:32;;;;;;;18.02;2.55;;;;;;;-146.73;nan;45867.34;6146283;23;20028;-91
2023/01/11 09:37:01;;;;;;;16.88;2.47;;;;;;;-146.73;nan;45841.72;6149933;23;20021;-92
2023/01/11 09:39:29;;;;;;;15.50;2.78;;;;;;;-146.73;nan;45883.13;6147976;23;20048;-92
2023/01/11 09:42:31;;;;;;;16.45;2.47;;;;;;;-146.73;nan;45916.69;6169981;23;20008;-93
2023/01/11 09:45:06;;;;;;;20.42;3.33;;;;;;;-146.73;nan;45849.59;6172852;23;20012;-93
2023/01/11 09:48:25;;;;;;;20.95;3.17;;;;;;;-146.73;nan;45857.50;6148183;23;20040;-93
2023/01/11 09:50:47;;;;;;;17.45;2.78;;;;;;;-146.73;nan;45920.63;6173597;23;20005;-92
2023/01/11 09:53:21;;;;;;;14.85;2.08;;;;;;;-146.73;nan;45835.78;6172249;23;20027;-94
2023/01/11 09:55:51;;;;;;;18.48;2.63;;;;;;;-146.73;nan;45821.97;6174123;23;20024;-93
2023/01/11 09:58:45;;;;;;;14.02;2.50;;;;;;;-146.73;nan;45894.97;6148641;23;20019;-93
2023/01/11 10:01:20;;;;;;;15.75;2.72;;;;;;;-146.73;nan;45861.44;6171869;23;20023;-93
2023/01/11 10:04:08;;;;;;;21.17;2.47;;;;;;;-146.73;nan;45837.75;6150957;23;20087;-94
2023/01/11 10:06:57;;;;;;;13.98;2.70;;;;;;;-146.73;nan;45847.63;6148888;23;20035;-93
2023/01/11 10:09:35;;;;;;;18.20;2.90;;;;;;;-146.73;nan;45843.69;6150606;23;20020;-94
2023/01/11 10:12:12;;;;;;;17.45;2.47;;;;;;;-146.73;nan;45863.41;6150066;23;20021;-93
2023/01/11 10:18:06;;;;;;;15.95;2.53;;;;;;;-146.73;nan;45869.31;6176403;23;20035;-94
2023/01/11 10:20:40;;;;;;;18.27;2.78;;;;;;;-146.73;nan;45845.66;6177587;23;20024;-94
2023/01/11 10:23:32;;;;;;;24.17;2.83;;;;;;;-146.73;nan;45928.50;6152970;23;20736;-92
2023/01/11 10:26:26;;;;;;;17.90;2.95;;;;;;;-146.73;nan;45912.72;6152412;23;20009;-94
2023/01/11 10:29:02;;;;;;;;;;;;;;;-146.73;nan;45898.91;6150653;23;20104;-92
2023/01/11 10:32:00;;;;;;;16.70;2.63;;;;;;;-146.73;nan;45889.06;6177007;23;19912;-94
2023/01/11 10:37:45;;;;;;;18.30;2.70;;;;;;;-146.73;nan;45887.09;6175389;23;20016;-93
2023/01/11 10:43:15;;;;;;;19.20;3.00;;;;;;;-146.73;nan;45906.81;6176664;23;20083;-94
2023/01/11 10:45:50;;;;;;;16.40;2.60;;;;;;;-146.73;nan;45940.34;6146959;23;20406;-93
2023/01/11 10:48:25;;;;;;;26.65;2.83;;;;;;;-146.73;nan;45991.66;6148830;23;20004;-93
2023/01/11 10:50:51;;;;;;;18.55;2.85;;;;;;;-146.73;nan;45962.06;6147742;23;20095;-93
2023/01/11 10:53:28;;;;;;;20.42;3.35;;;;;;;-146.73;nan;46155.41;6174810;23;20091;-91
2023/01/11 10:56:12;;;;;;;16.88;2.50;;;;;;;-146.73;nan;46131.72;6149369;23;20020;-93
2023/01/11 10:59:06;;;;;;;22.25;2.85;;;;;;;-146.73;nan;46190.91;6149015;23;20040;-92
2023/01/11 11:01:44;;;;;;;18.65;2.60;;;;;;;-146.73;nan;46121.84;6171576;23;20083;-91
2023/01/11 11:04:37;;;;;;;14.05;2.40;;;;;;;-146.73;nan;46295.47;6145768;23;20025;-92
2023/01/11 11:07:06;;;;;;;;;;;;;;;-146.73;nan;46271.81;6147884;23;20624;-91
2023/01/11 11:09:53;;;;;;;16.58;2.60;;;;;;;-146.73;nan;46342.84;6146381;23;19912;-96
2023/01/11 11:12:30;;;;;;;20.98;2.63;;;;;;;-146.73;nan;46110.03;6147506;23;20028;-94
2023/01/11 11:15:13;;;;;;;19.90;2.55;;;;;;;-146.73;nan;45991.66;6144511;23;20538;-94
2023/01/11 11:17:44;;;;;;;13.33;2.20;;;;;;;-146.73;nan;46110.03;6174467;23;20075;-94
2023/01/11 11:20:17;;;;;;;17.98;3.03;;;;;;;-146.73;nan;46263.91;6148334;23;20008;-95
2023/01/11 11:22:43;;;;;;;15.43;2.38;;;;;;;-146.73;nan;46090.28;6175615;23;20509;-96
2023/01/11 11:25:17;;;;;;;18.65;2.38;;;;;;;-146.73;nan;46370.47;6176121;23;20075;-94
2023/01/11 11:27:53;;;;;;;19.08;2.95;;;;;;;-146.73;nan;46571.72;6148109;23;20108;-95
2023/01/11 11:30:33;;;;;;;16.48;2.63;;;;;;;-146.73;nan;46607.25;6148435;23;20454;-95
2023/01/11 11:33:28;;;;;;;14.80;2.30;;;;;;;-146.73;nan;46609.22;6148073;23;20450;-96
2023/01/11 11:36:00;;;;;;;13.43;2.05;;;;;;;-146.73;nan;46402.03;6130839;23;20027;-94
2023/01/11 11:38:29;;;;;;;22.00;2.65;;;;;;;-146.73;nan;46216.56;6176130;23;20001;-95
2023/01/11 11:41:09;;;;;;;18.52;2.60;;;;;;;-146.73;nan;46261.94;6147690;23;20005;-95
2023/01/11 11:43:46;;;;;;;14.80;2.10;;;;;;;-146.73;nan;46074.50;6176393;23;20457;-93
2023/01/11 11:46:14;;;;;;;22.33;3.15;;;;;;;-146.73;nan;46013.34;6145363;23;20009;-93
2023/01/11 11:48:42;;;;;;;19.77;3.38;;;;;;;-146.73;nan;45952.19;6145391;23;20040;-92
2023/01/11 11:51:44;;;;;;;19.23;2.78;;;;;;;-146.73;nan;45958.09;6172601;23;20035;-94
2023/01/11 11:54:17;;;;;;;18.00;2.65;;;;;;;-146.73;nan;46033.06;6168981;23;20005;-93
2023/01/11 11:56:43;;;;;;;19.98;2.90;;;;;;;-146.73;nan;46123.84;6147690;23;20075;-94
2023/01/11 11:59:14;;;;;;;18.75;3.30;;;;;;;-146.73;nan;46019.25;6142873;23;20374;-93
2023/01/11 12:01:45;;;;;;;18.73;2.67;;;;;;;-146.73;nan;46212.63;6175119;23;20051;-93
2023/01/11 12:04:29;;;;;;;16.08;2.63;;;;;;;-146.73;nan;46115.94;6146957;23;20120;-90
2023/01/11 12:07:15;;;;;;;12.05;2.50;;;;;;;-146.73;nan;46230.38;6173575;23;20016;-92
2023/01/11 12:09:47;;;;;;;19.42;2.83;;;;;;;-146.73;nan;46092.25;6173596;23;20028;-93
2023/01/11 12:12:19;;;;;;;15.80;2.58;;;;;;;-146.73;nan;46125.81;6145887;23;20009;-93
2023/01/11 12:15:07;;;;;;;23.40;3.08;;;;;;;-146.73;nan;46100.16;6147870;23;20008;-92
2023/01/11 12:17:33;;;;;;;19.05;2.78;;;;;;;-146.73;nan;45991.66;6173420;23;20012;-93
2023/01/11 12:19:58;;;;;;;16.85;2.60;;;;;;;-146.73;nan;46104.09;6147717;23;20495;-93